Time;durP1;ratioP1;P1;durP2;ratioP2;P2;SDS_P1;SDS_P2;PMS_P1;PMS_P2;Temp;Humidity;BMP_temperature;BMP_pressure;BME280_temperature;BME280_humidity;BME280_pressure;Samples;Min_cycle;Max_cycle;Signal;HPM_P1;HPM_P2
2022/03/12 00:01:58;;;;;;;19.10;7.97;;;;;;;-3.33;39.92;100571.66;5054343;28;20041;-78
2022/03/12 00:04:26;;;;;;;15.15;6.68;;;;;;;-3.25;39.79;100548.28;5054054;28;20091;-79
2022/03/12 00:06:53;;;;;;;19.38;7.10;;;;;;;-3.26;39.82;100531.19;5053473;28;20061;-79
2022/03/12 00:09:21;;;;;;;22.65;8.73;;;;;;;-3.14;39.65;100543.16;5053627;28;20088;-78
2022/03/12 00:11:51;;;;;;;18.67;7.63;;;;;;;-3.05;39.78;100539.44;5053915;28;20052;-78
2022/03/12 00:14:23;;;;;;;29.17;8.05;;;;;;;-3.02;39.77;100543.09;5053934;28;20140;-78
2022/03/12 00:16:54;;;;;;;20.30;8.23;;;;;;;-2.97;39.74;100545.97;5053932;28;20156;-79
2022/03/12 00:19:21;;;;;;;21.38;7.93;;;;;;;-2.94;39.95;100541.06;5054395;28;20057;-80
2022/03/12 00:21:49;;;;;;;26.98;9.43;;;;;;;-3.04;39.82;100531.00;5052448;28;20084;-78
2022/03/12 00:24:18;;;;;;;24.67;8.45;;;;;;;-3.03;39.96;100530.19;5052163;28;20466;-76
2022/03/12 00:26:45;;;;;;;27.65;10.90;;;;;;;-2.95;39.97;100545.28;5053811;28;20212;-79
2022/03/12 00:29:15;;;;;;;26.13;9.48;;;;;;;-2.87;40.14;100543.25;5053773;28;20103;-77
2022/03/12 00:31:44;;;;;;;27.27;9.40;;;;;;;-2.77;39.81;100557.56;5053805;28;20056;-78
2022/03/12 00:34:12;;;;;;;30.85;9.45;;;;;;;-2.69;39.56;100539.38;5053659;28;20102;-78
2022/03/12 00:36:39;;;;;;;30.15;9.38;;;;;;;-2.66;39.69;100550.59;5053490;28;20060;-78
2022/03/12 00:39:09;;;;;;;27.23;9.63;;;;;;;-2.70;39.93;100546.94;5053316;28;20052;-79
2022/03/12 00:41:42;;;;;;;35.00;11.23;;;;;;;-2.71;39.91;100555.38;5052269;28;20056;-77
2022/03/12 00:44:19;;;;;;;47.13;10.68;;;;;;;-2.72;40.72;100541.72;5053308;28;20053;-78
2022/03/12 00:46:46;;;;;;;37.70;11.10;;;;;;;-2.66;40.52;100548.06;5053411;28;20052;-79
2022/03/12 00:49:13;;;;;;;35.67;10.30;;;;;;;-2.74;40.54;100507.47;5035448;28;20421;-79
2022/03/12 00:51:41;;;;;;;25.27;9.45;;;;;;;-2.58;40.36;100522.19;5053410;28;20053;-77
2022/03/12 00:54:08;;;;;;;25.75;9.27;;;;;;;-2.45;40.31;100530.66;5053414;28;20061;-76
2022/03/12 00:56:39;;;;;;;29.52;10.05;;;;;;;-2.47;40.54;100528.03;5052924;28;20662;-79
2022/03/12 00:59:07;;;;;;;29.13;9.48;;;;;;;-2.47;40.82;100512.66;5052961;28;20576;-77
2022/03/12 01:01:34;;;;;;;27.38;9.50;;;;;;;-2.46;40.49;100527.22;5053426;28;20056;-77
2022/03/12 01:04:04;;;;;;;29.05;9.70;;;;;;;-2.57;40.53;100502.59;5053034;28;20048;-77
2022/03/12 01:06:34;;;;;;;27.02;9.32;;;;;;;-2.50;40.84;100508.22;5053210;28;20056;-77
2022/03/12 01:09:01;;;;;;;28.77;8.88;;;;;;;-2.50;40.86;100503.09;5053048;28;20084;-78
2022/03/12 01:11:29;;;;;;;32.83;9.35;;;;;;;-2.36;40.60;100521.03;5053157;28;20087;-79
2022/03/12 01:13:56;;;;;;;26.08;9.00;;;;;;;-2.51;40.36;100469.75;5051486;28;20053;-80
2022/03/12 01:16:23;;;;;;;23.45;8.57;;;;;;;-2.48;40.32;100464.81;5052868;28;20397;-80
2022/03/12 01:18:50;;;;;;;29.70;8.90;;;;;;;-2.55;39.87;100461.00;5053728;28;20099;-78
2022/03/12 01:21:18;;;;;;;21.42;7.20;;;;;;;-2.30;39.86;100500.97;5055965;28;20095;-78
2022/03/12 01:23:49;;;;;;;21.38;7.35;;;;;;;-2.24;39.99;100505.59;5053585;28;20056;-79
2022/03/12 01:26:17;;;;;;;;;;;;;;;-2.35;40.30;100494.66;5052577;28;20452;-77
2022/03/12 01:28:45;;;;;;;20.98;7.20;;;;;;;-2.30;39.83;100483.06;5053283;28;19929;-78
2022/03/12 01:31:13;;;;;;;23.95;8.25;;;;;;;-2.25;40.35;100485.91;5052590;28;20090;-78
2022/03/12 01:33:40;;;;;;;26.02;8.50;;;;;;;-2.29;40.30;100475.47;5051574;28;20048;-77
2022/03/12 01:36:08;;;;;;;17.55;7.35;;;;;;;-2.21;40.56;100493.88;5052782;28;20057;-80
2022/03/12 01:38:57;;;;;;;28.98;9.23;;;;;;;-2.31;40.61;100471.03;5053132;28;20056;-78
2022/03/12 01:41:33;;;;;;;27.88;9.13;;;;;;;-2.40;40.99;100480.69;5054458;28;20057;-79
2022/03/12 01:44:02;;;;;;;27.92;9.65;;;;;;;-2.38;41.29;100462.09;5051683;28;20139;-78
2022/03/12 01:46:33;;;;;;;25.10;9.38;;;;;;;-2.27;41.90;100476.44;5053169;28;20060;-78
2022/03/12 01:49:12;;;;;;;23.30;8.45;;;;;;;-2.43;41.83;100449.75;5051257;28;20077;-79
2022/03/12 01:51:42;;;;;;;27.92;9.85;;;;;;;-2.45;42.40;100465.03;5052422;28;20456;-77
2022/03/12 01:54:50;;;;;;;29.85;9.50;;;;;;;-2.38;42.10;100481.69;5052112;28;20053;-80
2022/03/12 01:57:48;;;;;;;25.45;9.10;;;;;;;-2.81;42.36;100433.72;5031645;28;20056;-79
2022/03/12 02:00:26;;;;;;;26.48;9.15;;;;;;;-2.51;42.44;100478.31;5032715;28;20103;-79
2022/03/12 02:02:54;;;;;;;31.00;10.68;;;;;;;-2.48;42.65;100491.28;5015490;28;20053;-78
2022/03/12 02:05:27;;;;;;;28.50;10.93;;;;;;;-3.03;42.42;100413.53;5031462;28;20458;-79
2022/03/12 02:08:02;;;;;;;30.67;9.13;;;;;;;-2.59;42.60;100476.91;5032174;28;20133;-78
2022/03/12 02:10:29;;;;;;;30.92;10.70;;;;;;;-2.54;42.91;100503.72;5031925;28;20136;-79
2022/03/12 02:12:56;;;;;;;25.42;9.30;;;;;;;-2.55;43.16;100491.69;5031177;28;20141;-79
2022/03/12 02:15:24;;;;;;;24.98;9.20;;;;;;;-2.64;43.55;100492.75;5031920;28;20053;-77
2022/03/12 02:17:54;;;;;;;31.00;9.30;;;;;;;-2.64;43.30;100501.31;5043458;28;20057;-81
2022/03/12 02:20:32;;;;;;;21.67;8.05;;;;;;;-2.72;42.83;100497.38;5029914;28;20156;-78
2022/03/12 02:22:59;;;;;;;25.95;8.20;;;;;;;-2.78;42.71;100491.84;5035282;28;20145;-79
2022/03/12 02:25:32;;;;;;;21.40;7.93;;;;;;;-3.44;42.72;100365.66;5050541;28;20110;-80
2022/03/12 02:28:19;;;;;;;26.17;8.20;;;;;;;-2.62;42.85;100480.97;5055940;28;20045;-79
2022/03/12 02:30:59;;;;;;;19.77;7.38;;;;;;;-2.71;42.66;100442.84;5055742;28;20451;-80
2022/03/12 02:33:28;;;;;;;21.45;7.10;;;;;;;-2.54;42.71;100472.09;5053941;28;20061;-78
2022/03/12 02:35:59;;;;;;;18.77;7.38;;;;;;;-2.60;42.60;100439.34;5055374;28;20049;-80
2022/03/12 02:38:38;;;;;;;23.02;7.95;;;;;;;-2.40;42.63;100465.34;5055068;28;20564;-82
2022/03/12 02:41:20;;;;;;;20.05;7.60;;;;;;;-2.77;42.64;100384.53;5054647;28;20126;-80
2022/03/12 02:43:51;;;;;;;;;;;;;;;-2.41;42.13;100459.34;5056191;28;20082;-80
2022/03/12 02:46:21;;;;;;;20.95;7.20;;;;;;;-2.51;42.50;100428.81;5086894;28;20381;-78
2022/03/12 02:48:52;;;;;;;18.65;7.15;;;;;;;-2.33;42.60;100447.91;5055282;28;20107;-79
2022/03/12 02:51:36;;;;;;;22.08;8.07;;;;;;;-2.97;42.99;100350.03;5038105;28;20467;-79
2022/03/12 02:54:21;;;;;;;23.88;8.32;;;;;;;-2.64;42.92;100385.34;5070928;28;20459;-80
2022/03/12 02:57:28;;;;;;;21.48;7.65;;;;;;;-2.80;43.22;100324.63;5026502;28;20432;-81
2022/03/12 03:00:13;;;;;;;23.70;7.32;;;;;;;-2.69;43.20;100375.69;5053990;28;20052;-79
2022/03/12 03:03:08;;;;;;;15.32;7.20;;;;;;;-2.48;43.37;100395.75;5028225;28;20393;-81
2022/03/12 03:06:07;;;;;;;18.55;6.32;;;;;;;-2.43;43.42;100437.88;5022429;28;20049;-79
2022/03/12 03:09:04;;;;;;;16.88;6.45;;;;;;;-2.49;43.70;100388.88;5073275;28;20464;-79
2022/03/12 03:11:54;;;;;;;19.48;7.35;;;;;;;-2.86;43.68;100330.25;5075061;28;20394;-79
2022/03/12 03:14:27;;;;;;;24.83;7.32;;;;;;;-2.31;43.69;100415.63;5056290;28;20057;-80
2022/03/12 03:17:35;;;;;;;24.77;6.78;;;;;;;-2.21;43.70;100424.78;5056177;28;20053;-80
2022/03/12 03:20:06;;;;;;;16.75;6.07;;;;;;;-2.17;44.04;100431.84;5056015;28;20064;-78
2022/03/12 03:22:33;;;;;;;19.90;7.22;;;;;;;-2.31;44.03;100396.81;5057215;28;20080;-80
2022/03/12 03:25:09;;;;;;;19.25;5.97;;;;;;;-2.11;43.83;100459.50;5058530;28;20057;-78
2022/03/12 03:27:45;;;;;;;18.50;6.65;;;;;;;-2.86;44.34;100329.34;5058225;28;20048;-80
2022/03/12 03:30:18;;;;;;;20.05;6.25;;;;;;;-2.51;44.43;100399.00;5039914;28;20053;-77
2022/03/12 03:32:51;;;;;;;14.57;6.20;;;;;;;-2.62;44.69;100382.09;5056444;28;20060;-81
2022/03/12 03:35:34;;;;;;;;;;;;;;;-2.53;44.35;100425.28;5038378;28;20053;-80
2022/03/12 03:38:12;;;;;;;16.83;5.90;;;;;;;-3.10;44.81;100338.09;5053284;28;20311;-77
2022/03/12 03:40:44;;;;;;;18.08;6.30;;;;;;;-2.82;45.21;100385.00;5051577;28;20049;-81
2022/03/12 03:43:21;;;;;;;18.85;6.95;;;;;;;-2.55;45.17;100437.09;5037322;28;20071;-82
2022/03/12 03:46:02;;;;;;;21.83;7.05;;;;;;;-3.15;44.94;100362.47;5054419;28;20045;-84
2022/03/12 03:48:40;;;;;;;17.30;6.63;;;;;;;-3.28;45.19;100328.34;5054918;28;20152;-81
2022/03/12 03:51:44;;;;;;;19.77;7.30;;;;;;;-2.68;45.20;100426.03;5055792;28;20045;-82
2022/03/12 03:54:15;;;;;;;21.30;10.13;;;;;;;-3.21;45.28;100328.84;5055616;28;20049;-81
2022/03/12 03:56:46;;;;;;;25.23;11.93;;;;;;;-2.54;45.33;100424.41;5008659;28;20053;-79
2022/03/12 03:59:16;;;;;;;32.05;14.10;;;;;;;-2.53;45.53;100430.41;5030729;28;20076;-80
2022/03/12 04:01:43;;;;;;;24.52;12.55;;;;;;;-2.52;45.77;100432.16;5046575;28;20057;-79
2022/03/12 04:04:12;;;;;;;31.73;13.60;;;;;;;-2.44;45.59;100430.09;5034317;28;20049;-78
2022/03/12 04:06:39;;;;;;;22.42;9.65;;;;;;;-2.62;45.57;100415.34;5034028;28;20057;-78
2022/03/12 04:09:07;;;;;;;15.98;6.97;;;;;;;-2.36;45.47;100437.47;5032484;28;20425;-81
2022/03/12 04:11:34;;;;;;;18.70;6.95;;;;;;;-2.43;44.96;100440.44;5033707;28;20498;-79
2022/03/12 04:14:05;;;;;;;18.00;7.10;;;;;;;-2.53;45.94;100448.31;5033689;28;20465;-78
2022/03/12 04:16:33;;;;;;;19.15;7.05;;;;;;;-2.58;45.88;100463.34;5033651;28;20099;-79
2022/03/12 04:19:02;;;;;;;19.05;7.30;;;;;;;-2.65;45.88;100468.84;5033672;28;20064;-79
2022/03/12 04:21:29;;;;;;;20.08;6.88;;;;;;;-2.79;46.33;100452.59;5032355;28;20058;-79
2022/03/12 04:23:57;;;;;;;18.20;6.95;;;;;;;-2.86;46.62;100469.97;5034051;28;20097;-80
2022/03/12 04:26:24;;;;;;;22.13;7.20;;;;;;;-2.85;46.40;100475.19;5032895;28;20399;-80
2022/03/12 04:28:51;;;;;;;14.90;5.47;;;;;;;-2.94;46.67;100465.25;5033839;28;20517;-78
2022/03/12 04:31:19;;;;;;;17.67;6.70;;;;;;;-2.94;46.68;100466.94;5016338;28;20543;-80
2022/03/12 04:33:46;;;;;;;14.85;6.35;;;;;;;-2.99;46.85;100471.75;5036826;28;20108;-78
2022/03/12 04:36:13;;;;;;;18.33;5.60;;;;;;;-3.01;47.21;100467.28;5032753;28;20514;-79
2022/03/12 04:38:40;;;;;;;12.95;5.13;;;;;;;-3.10;46.96;100442.00;5032256;28;20051;-80
2022/03/12 04:41:08;;;;;;;10.82;4.70;;;;;;;-3.25;46.96;100408.63;5033284;28;20088;-80
2022/03/12 04:43:35;;;;;;;10.68;5.30;;;;;;;-3.02;46.87;100443.41;5033740;28;20103;-78
2022/03/12 04:46:02;;;;;;;12.20;4.72;;;;;;;-2.85;46.83;100470.09;5033860;28;20060;-80
2022/03/12 04:48:30;;;;;;;15.73;5.22;;;;;;;-2.74;46.72;100479.34;5032308;28;20532;-80
2022/03/12 04:50:57;;;;;;;11.90;5.32;;;;;;;-2.70;46.74;100480.44;5032353;28;20059;-80
2022/03/12 04:53:25;;;;;;;11.52;4.43;;;;;;;-2.60;46.97;100467.47;5033489;28;20080;-78
2022/03/12 04:55:52;;;;;;;13.32;4.47;;;;;;;-2.77;46.38;100422.91;5033383;28;20053;-80
2022/03/12 04:58:20;;;;;;;12.40;5.55;;;;;;;-2.59;46.60;100463.25;5033320;28;20581;-79
2022/03/12 05:00:47;;;;;;;13.02;4.90;;;;;;;-2.51;46.56;100464.63;5033769;28;20057;-78
2022/03/12 05:03:18;;;;;;;13.25;4.95;;;;;;;-2.57;46.64;100451.44;5033555;28;20512;-79
2022/03/12 05:05:48;;;;;;;15.60;4.63;;;;;;;-2.58;46.93;100465.00;5034403;28;20101;-78
2022/03/12 05:08:16;;;;;;;12.15;4.75;;;;;;;-2.59;46.76;100464.13;5053472;28;20057;-80
2022/03/12 05:10:49;;;;;;;12.90;5.00;;;;;;;-2.61;46.90;100460.56;5052899;28;20052;-77
2022/03/12 05:13:22;;;;;;;11.13;5.22;;;;;;;-2.74;46.94;100410.28;5052736;28;20049;-81
2022/03/12 05:15:52;;;;;;;11.50;5.30;;;;;;;-2.41;46.68;100422.59;5052423;28;20051;-78
2022/03/12 05:18:20;;;;;;;11.48;4.85;;;;;;;-2.15;46.47;100447.28;5052686;28;20057;-79
2022/03/12 05:20:47;;;;;;;11.95;4.60;;;;;;;-2.06;46.03;100453.00;5053096;28;20096;-80
2022/03/12 05:23:16;;;;;;;11.13;4.82;;;;;;;-2.15;46.22;100462.66;5052856;28;20064;-80
2022/03/12 05:25:47;;;;;;;11.10;4.80;;;;;;;-2.20;46.58;100480.28;5035204;28;20076;-77
2022/03/12 05:28:17;;;;;;;12.47;5.00;;;;;;;-2.38;46.88;100454.41;5050976;28;20507;-78
2022/03/12 05:30:46;;;;;;;15.05;4.55;;;;;;;-2.13;46.64;100485.03;5052448;28;20048;-77
2022/03/12 05:33:14;;;;;;;16.42;5.30;;;;;;;-2.10;46.31;100490.31;5052077;28;20501;-83
2022/03/12 05:35:43;;;;;;;15.68;5.25;;;;;;;-2.18;46.25;100453.09;5045130;28;20456;-79
2022/03/12 05:38:11;;;;;;;10.82;4.70;;;;;;;-1.87;46.21;100484.13;5033515;28;20100;-79
2022/03/12 05:40:45;;;;;;;18.23;5.10;;;;;;;-1.92;46.14;100474.34;5049931;28;20088;-80
2022/03/12 05:43:14;;;;;;;11.27;5.22;;;;;;;-1.89;46.16;100489.94;5051485;28;20053;-80
2022/03/12 05:45:47;;;;;;;25.30;5.30;;;;;;;-1.85;46.10;100484.19;5051361;28;20476;-78
2022/03/12 05:48:16;;;;;;;10.85;4.88;;;;;;;-1.71;45.64;100480.81;5052085;28;20072;-80
2022/03/12 05:50:49;;;;;;;14.82;5.45;;;;;;;-1.65;45.28;100475.19;5053826;28;20056;-79
2022/03/12 05:53:19;;;;;;;15.05;6.13;;;;;;;-1.49;45.47;100489.81;5053452;28;20053;-79
2022/03/12 05:55:47;;;;;;;12.35;5.38;;;;;;;-1.42;45.24;100486.84;5053771;28;20408;-77
2022/03/12 05:58:19;;;;;;;11.27;4.93;;;;;;;-1.47;44.98;100470.31;5055626;28;20056;-79
2022/03/12 06:00:54;;;;;;;12.40;5.15;;;;;;;-1.35;44.79;100481.31;5056245;28;20412;-81
2022/03/12 06:03:23;;;;;;;14.20;4.90;;;;;;;-1.39;44.59;100443.47;5053831;28;20049;-80
2022/03/12 06:05:56;;;;;;;9.73;4.43;;;;;;;-1.27;44.67;100446.78;5054885;28;20053;-78
2022/03/12 06:08:24;;;;;;;12.85;5.35;;;;;;;-1.14;44.26;100462.88;5054781;28;20497;-79
2022/03/12 06:10:58;;;;;;;15.07;5.13;;;;;;;-1.24;44.08;100411.06;5057279;28;21397;-81
2022/03/12 06:13:30;;;;;;;14.48;5.32;;;;;;;-1.05;43.68;100464.31;5057726;28;20524;-78
2022/03/12 06:16:21;;;;;;;14.77;4.97;;;;;;;-1.10;44.31;100449.44;5055831;28;20049;-79
2022/03/12 06:18:48;;;;;;;14.98;5.43;;;;;;;-1.27;44.13;100425.38;5056704;28;20098;-80
2022/03/12 06:21:39;;;;;;;13.50;5.05;;;;;;;-1.24;44.10;100436.69;5055912;28;20064;-82
2022/03/12 06:24:17;;;;;;;13.63;5.32;;;;;;;-1.25;43.90;100470.84;5048613;28;20057;-81
2022/03/12 06:26:46;;;;;;;14.30;5.28;;;;;;;-1.66;43.84;100392.34;5054922;28;20041;-81
2022/03/12 06:29:13;;;;;;;12.90;5.70;;;;;;;-1.16;44.18;100478.19;5056032;28;20115;-83
2022/03/12 06:31:42;;;;;;;13.25;5.28;;;;;;;-1.16;44.03;100478.19;5060083;28;20053;-81
2022/03/12 06:34:11;;;;;;;11.65;5.63;;;;;;;-1.17;44.04;100472.97;5054649;28;20444;-79
2022/03/12 06:36:44;;;;;;;18.20;8.30;;;;;;;-1.18;44.09;100456.69;5054527;28;20095;-80
2022/03/12 06:39:11;;;;;;;13.30;6.50;;;;;;;-0.87;43.34;100468.75;5055759;28;20524;-80
2022/03/12 06:41:39;;;;;;;14.02;5.80;;;;;;;-0.81;43.42;100483.63;5054939;28;20114;-78
2022/03/12 06:44:06;;;;;;;18.48;5.47;;;;;;;-0.81;43.17;100479.38;5054586;28;20509;-80
2022/03/12 06:46:35;;;;;;;17.83;6.70;;;;;;;-0.73;42.84;100482.38;5055542;28;20053;-78
2022/03/12 06:49:04;;;;;;;14.27;6.38;;;;;;;-0.77;43.30;100473.63;5049406;28;20058;-79
2022/03/12 06:51:33;;;;;;;13.60;5.77;;;;;;;-0.69;42.89;100479.19;5036539;28;20053;-79
2022/03/12 06:54:00;;;;;;;14.52;6.40;;;;;;;-0.80;42.92;100434.97;5042718;28;20135;-80
2022/03/12 06:56:28;;;;;;;16.70;8.07;;;;;;;-0.36;42.77;100485.41;5057455;28;20052;-81
2022/03/12 06:58:55;;;;;;;10.80;4.90;;;;;;;-0.27;42.28;100478.22;5058270;28;20140;-79
2022/03/12 07:01:22;;;;;;;13.52;5.45;;;;;;;-0.17;42.46;100476.16;5063799;28;20061;-80
2022/03/12 07:03:54;;;;;;;16.55;6.35;;;;;;;0.10;42.30;100484.53;5067832;28;20048;-78
2022/03/12 07:06:21;;;;;;;12.48;5.57;;;;;;;0.34;41.97;100483.28;5067088;28;20056;-79
2022/03/12 07:08:49;;;;;;;13.15;5.65;;;;;;;0.40;41.66;100482.75;5063855;28;20049;-79
2022/03/12 07:11:17;;;;;;;12.68;5.60;;;;;;;0.38;41.79;100485.22;5061940;28;20135;-79
2022/03/12 07:13:44;;;;;;;8.95;4.30;;;;;;;0.12;42.34;100483.78;5062090;28;20053;-80
2022/03/12 07:16:11;;;;;;;8.75;4.28;;;;;;;-0.29;42.67;100481.50;5056101;28;20045;-80
2022/03/12 07:18:38;;;;;;;9.65;4.70;;;;;;;-0.47;43.11;100476.22;5054810;28;20108;-79
2022/03/12 07:21:06;;;;;;;10.70;5.05;;;;;;;-0.07;42.91;100494.72;5054463;28;20592;-79
2022/03/12 07:23:34;;;;;;;11.95;4.78;;;;;;;0.01;42.50;100472.06;5047548;28;20040;-79
2022/03/12 07:26:01;;;;;;;9.18;4.50;;;;;;;0.05;42.45;100479.13;5053296;28;20053;-81
2022/03/12 07:28:29;;;;;;;11.25;4.38;;;;;;;-0.05;42.96;100495.69;5054449;28;20069;-79
2022/03/12 07:30:57;;;;;;;7.57;3.95;;;;;;;-0.45;43.09;100452.41;5053487;28;20056;-81
2022/03/12 07:33:24;;;;;;;13.18;5.05;;;;;;;-0.13;42.88;100483.22;5054231;28;20558;-80
2022/03/12 07:35:54;;;;;;;11.07;4.82;;;;;;;0.07;43.00;100485.25;5054455;28;20132;-81
2022/03/12 07:38:21;;;;;;;10.53;4.17;;;;;;;0.08;42.32;100450.16;5032828;28;20069;-80
2022/03/12 07:40:48;;;;;;;11.63;5.03;;;;;;;0.27;42.52;100482.88;5049780;28;20698;-79
2022/03/12 07:43:14;;;;;;;13.35;4.80;;;;;;;0.49;42.23;100478.06;5052747;28;20049;-81
2022/03/12 07:45:44;;;;;;;8.65;4.18;;;;;;;0.82;41.74;100467.81;5052503;28;20102;-81
2022/03/12 07:48:13;;;;;;;16.00;5.00;;;;;;;1.00;41.85;100479.03;5049687;28;20121;-80
2022/03/12 07:51:02;;;;;;;11.57;5.00;;;;;;;0.95;42.04;100477.06;5049535;28;20132;-82
2022/03/12 07:53:30;;;;;;;10.00;3.80;;;;;;;0.87;42.05;100480.91;5049347;28;20041;-80
2022/03/12 07:56:04;;;;;;;9.23;4.55;;;;;;;0.97;42.34;100471.19;5050807;28;20447;-82
2022/03/12 07:58:35;;;;;;;8.38;4.03;;;;;;;0.98;41.98;100434.34;5047447;28;20049;-81
2022/03/12 08:07:04;;;;;;;7.32;3.53;;;;;;;0.71;43.45;100482.69;4929887;28;20047;-83
2022/03/12 08:09:56;;;;;;;9.35;4.45;;;;;;;0.38;44.00;100490.34;4958116;28;20047;-85
2022/03/12 08:12:58;;;;;;;11.57;4.50;;;;;;;-0.59;44.83;100381.44;4968991;28;20089;-85
2022/03/12 08:15:41;;;;;;;12.25;4.57;;;;;;;0.18;45.30;100504.69;4949552;28;20105;-83
2022/03/12 08:18:08;;;;;;;12.48;4.93;;;;;;;0.19;45.19;100496.22;4966326;28;20177;-83
2022/03/12 08:20:35;;;;;;;8.80;4.60;;;;;;;0.33;45.00;100512.38;4982268;28;20604;-81
2022/03/12 08:23:02;;;;;;;15.32;4.90;;;;;;;0.18;45.09;100507.25;4970064;28;20434;-78
2022/03/12 08:25:29;;;;;;;12.93;5.00;;;;;;;0.14;45.59;100505.31;4986843;28;20104;-81
2022/03/12 08:27:56;;;;;;;11.00;5.10;;;;;;;0.48;45.02;100506.28;4988120;28;20047;-82
2022/03/12 08:30:24;;;;;;;12.25;5.03;;;;;;;0.48;44.65;100501.16;4978970;28;20070;-84
2022/03/12 08:32:52;;;;;;;8.20;4.70;;;;;;;0.44;45.36;100519.78;4986804;28;20061;-84
2022/03/12 08:35:20;;;;;;;12.15;4.63;;;;;;;0.34;45.53;100483.28;4971323;28;20746;-83
2022/03/12 08:37:47;;;;;;;11.30;5.03;;;;;;;0.51;45.73;100491.03;4970371;28;20058;-85
2022/03/12 08:40:16;;;;;;;11.65;5.00;;;;;;;0.66;45.32;100491.84;5022716;28;20048;-83
2022/03/12 08:42:43;;;;;;;9.35;5.53;;;;;;;0.75;45.09;100469.19;5050960;28;20049;-85
2022/03/12 08:45:11;;;;;;;16.40;5.72;;;;;;;1.05;44.95;100448.41;5049286;28;20635;-84
2022/03/12 08:47:40;;;;;;;11.95;4.85;;;;;;;1.61;44.15;100490.66;5051227;28;20056;-85
2022/03/12 08:50:08;;;;;;;10.77;5.00;;;;;;;1.79;43.47;100493.28;5048770;28;20053;-87
2022/03/12 08:52:36;;;;;;;11.90;5.63;;;;;;;1.71;44.32;100498.03;5043829;28;20500;-84
2022/03/12 08:55:05;;;;;;;15.52;5.05;;;;;;;1.58;44.50;100468.22;5044388;28;20053;-85
2022/03/12 08:57:32;;;;;;;16.50;5.60;;;;;;;2.17;43.80;100486.47;5027988;28;20059;-86
2022/03/12 08:59:59;;;;;;;10.82;5.03;;;;;;;1.94;44.04;100491.44;5028744;28;20056;-83
2022/03/12 09:02:29;;;;;;;11.38;4.90;;;;;;;1.69;45.30;100483.31;5047373;28;20547;-80
2022/03/12 09:04:57;;;;;;;;;;;;;;;1.55;45.12;100482.63;5049895;28;20083;-83
2022/03/12 09:07:24;;;;;;;12.05;5.78;;;;;;;1.90;44.51;100466.31;5048940;28;19925;-81
2022/03/12 09:09:53;;;;;;;11.75;4.97;;;;;;;2.25;43.90;100472.25;5048839;28;20044;-79
2022/03/12 09:12:32;;;;;;;12.43;5.07;;;;;;;2.08;44.16;100449.97;5049941;28;20144;-79
2022/03/12 09:14:59;;;;;;;13.50;5.18;;;;;;;2.24;44.15;100498.84;5082820;28;20102;-80
2022/03/12 09:17:26;;;;;;;12.70;5.68;;;;;;;2.28;44.36;100498.19;5048799;28;20052;-77
2022/03/12 09:19:54;;;;;;;12.60;4.82;;;;;;;2.08;44.56;100468.88;5046531;28;20052;-80
2022/03/12 09:22:23;;;;;;;11.13;5.25;;;;;;;1.92;45.21;100512.78;5048220;28;20061;-78
2022/03/12 09:24:50;;;;;;;11.52;4.78;;;;;;;1.53;45.81;100484.28;5049765;28;20057;-81
2022/03/12 09:27:17;;;;;;;10.07;4.60;;;;;;;1.34;46.39;100496.22;5057779;28;20098;-81
2022/03/12 09:29:44;;;;;;;13.32;4.78;;;;;;;1.48;46.17;100507.19;5056925;28;20510;-81
2022/03/12 09:32:11;;;;;;;12.63;5.43;;;;;;;1.18;47.09;100462.78;5055542;28;20053;-78
2022/03/12 09:34:38;;;;;;;12.90;5.65;;;;;;;1.29;46.65;100451.34;5054650;28;20067;-79
2022/03/12 09:37:09;;;;;;;12.80;5.50;;;;;;;1.70;46.02;100500.53;5054089;28;20144;-79
2022/03/12 09:39:37;;;;;;;12.18;4.85;;;;;;;1.67;46.28;100519.28;5053093;28;20044;-79
2022/03/12 09:42:05;;;;;;;10.10;4.60;;;;;;;1.29;46.88;100474.53;5053464;28;20110;-78
2022/03/12 09:44:32;;;;;;;10.45;5.13;;;;;;;1.46;47.13;100510.50;5054442;28;20431;-81
2022/03/12 09:46:59;;;;;;;12.13;5.00;;;;;;;1.64;47.09;100507.16;5054361;28;20467;-80
2022/03/12 09:49:26;;;;;;;9.52;4.93;;;;;;;1.65;46.69;100471.97;5054921;28;20143;-78
2022/03/12 09:51:53;;;;;;;12.70;5.10;;;;;;;1.74;47.17;100513.66;5060318;28;20091;-79
2022/03/12 09:54:20;;;;;;;10.60;4.43;;;;;;;1.43;48.13;100514.69;5057343;28;20048;-81
2022/03/12 09:56:48;;;;;;;11.50;5.38;;;;;;;1.41;48.73;100507.69;5055716;28;20057;-78
2022/03/12 09:59:15;;;;;;;8.43;4.30;;;;;;;1.51;48.65;100504.78;5055632;28;20098;-80
2022/03/12 10:01:42;;;;;;;10.90;4.43;;;;;;;1.45;48.52;100463.28;5053429;28;20088;-80
2022/03/12 10:04:09;;;;;;;13.07;5.13;;;;;;;1.51;48.90;100507.38;5055757;28;20131;-81
2022/03/12 10:06:36;;;;;;;7.32;4.00;;;;;;;1.28;49.31;100470.16;5054868;28;20123;-80
2022/03/12 10:09:06;;;;;;;14.82;5.03;;;;;;;1.43;49.48;100503.50;5052934;28;21008;-80
2022/03/12 10:11:36;;;;;;;7.50;4.18;;;;;;;1.32;49.94;100513.28;5050912;28;20045;-80
2022/03/12 10:14:03;;;;;;;9.60;4.65;;;;;;;1.14;49.48;100471.16;5038461;28;20096;-81
2022/03/12 10:16:32;;;;;;;16.75;5.78;;;;;;;1.39;49.51;100517.91;5040571;28;20053;-81
2022/03/12 10:18:59;;;;;;;12.07;4.88;;;;;;;1.62;49.39;100524.22;5057537;28;20456;-80
2022/03/12 10:21:26;;;;;;;9.07;4.97;;;;;;;1.42;49.69;100520.66;5056707;28;20060;-80
2022/03/12 10:23:53;;;;;;;10.23;4.70;;;;;;;1.34;50.05;100518.50;5021191;28;20128;-81
2022/03/12 10:26:21;;;;;;;11.15;3.95;;;;;;;1.44;49.98;100520.72;5055746;28;20128;-79
2022/03/12 10:28:48;;;;;;;9.50;4.50;;;;;;;1.40;49.88;100527.41;5053400;28;20060;-81
2022/03/12 10:31:18;;;;;;;10.65;4.80;;;;;;;1.31;50.09;100526.06;5058007;28;20049;-80
2022/03/12 10:33:46;;;;;;;8.30;4.05;;;;;;;1.09;50.74;100511.22;5057807;28;20094;-84
2022/03/12 10:36:16;;;;;;;10.57;4.55;;;;;;;1.04;50.56;100517.81;5054224;28;20535;-83
2022/03/12 10:38:50;;;;;;;9.85;4.32;;;;;;;1.23;50.38;100520.53;5051929;28;20519;-83
2022/03/12 10:41:20;;;;;;;10.68;4.70;;;;;;;1.41;50.23;100529.19;5053983;28;20049;-83
2022/03/12 10:43:54;;;;;;;7.80;4.53;;;;;;;1.49;49.88;100505.53;5054221;28;20053;-80
2022/03/12 10:46:25;;;;;;;11.52;5.43;;;;;;;1.76;49.88;100529.16;5054857;28;20123;-82
2022/03/12 10:49:00;;;;;;;10.77;4.00;;;;;;;1.21;49.91;100458.69;5055215;28;20052;-82
2022/03/12 10:51:36;;;;;;;17.15;5.55;;;;;;;1.39;50.49;100520.50;5064176;28;20139;-83
2022/03/12 10:54:15;;;;;;;13.02;5.07;;;;;;;1.65;50.37;100523.50;5063808;28;20049;-81
2022/03/12 10:56:48;;;;;;;10.50;4.97;;;;;;;1.69;49.72;100499.66;5061326;28;20094;-82
2022/03/12 10:59:21;;;;;;;13.25;5.15;;;;;;;1.75;49.18;100502.53;5053259;28;20056;-82
2022/03/12 11:02:02;;;;;;;10.75;4.60;;;;;;;1.74;48.95;100492.16;5055368;28;20096;-83
2022/03/12 11:04:34;;;;;;;12.43;5.50;;;;;;;1.92;49.16;100512.78;5059478;28;20607;-83
2022/03/12 11:07:30;;;;;;;12.57;5.50;;;;;;;2.15;48.74;100530.25;5061045;28;20060;-82
2022/03/12 11:10:01;;;;;;;9.63;4.13;;;;;;;1.97;49.27;100519.03;5078529;28;20064;-81
2022/03/12 11:12:36;;;;;;;11.55;4.68;;;;;;;1.98;49.13;100524.28;5019017;28;20053;-81
2022/03/12 11:15:10;;;;;;;12.57;5.05;;;;;;;2.07;49.08;100553.88;5053377;28;20421;-82
2022/03/12 11:17:43;;;;;;;10.52;4.25;;;;;;;1.99;48.78;100546.63;5049681;28;20060;-83
2022/03/12 11:20:21;;;;;;;8.30;4.20;;;;;;;1.94;49.12;100542.97;5035555;28;20052;-83
2022/03/12 11:22:55;;;;;;;8.10;3.85;;;;;;;1.97;49.35;100544.81;5051137;28;20059;-81
2022/03/12 11:25:27;;;;;;;8.18;3.72;;;;;;;2.11;49.19;100543.78;5054432;28;20060;-82
2022/03/12 11:27:59;;;;;;;8.90;3.90;;;;;;;1.88;49.24;100544.38;5050927;28;20049;-80
2022/03/12 11:30:30;;;;;;;9.70;4.38;;;;;;;1.53;49.92;100510.91;5033266;28;20061;-83
2022/03/12 11:33:08;;;;;;;7.63;3.95;;;;;;;1.73;49.84;100535.06;5049585;28;20049;-83
2022/03/12 11:35:45;;;;;;;9.00;4.22;;;;;;;1.74;49.63;100536.84;5051542;28;20056;-83
2022/03/12 11:38:21;;;;;;;9.10;4.22;;;;;;;1.50;49.63;100496.97;5047962;28;20505;-85
2022/03/12 11:41:04;;;;;;;8.65;3.67;;;;;;;1.66;50.00;100530.44;5036181;28;20057;-86
2022/03/12 11:43:39;;;;;;;9.13;4.30;;;;;;;1.43;50.11;100490.66;5030756;28;20060;-84
2022/03/12 11:46:09;;;;;;;10.70;4.50;;;;;;;1.79;49.72;100558.56;5039375;28;20087;-85
2022/03/12 11:48:38;;;;;;;7.43;3.78;;;;;;;1.37;50.18;100532.41;5049703;28;20064;-84